sensor_id;sensor_type;location;lat;lon;timestamp;P1;durP1;ratioP1;P2;durP2;ratioP2
54388;SDS011;40975;50.390;8.640;2023-03-05T00:00:43;3.17;;;1.30;;
54388;SDS011;40975;50.390;8.640;2023-03-05T00:03:08;2.53;;;1.13;;
54388;SDS011;40975;50.390;8.640;2023-03-05T00:05:33;3.25;;;1.50;;
54388;SDS011;40975;50.390;8.640;2023-03-05T00:07:59;2.45;;;1.25;;
54388;SDS011;40975;50.390;8.640;2023-03-05T00:10:24;2.15;;;0.95;;
54388;SDS011;40975;50.390;8.640;2023-03-05T00:12:50;3.78;;;1.35;;
54388;SDS011;40975;50.390;8.640;2023-03-05T00:15:15;2.13;;;1.20;;
54388;SDS011;40975;50.390;8.640;2023-03-05T00:17:40;4.03;;;1.25;;
54388;SDS011;40975;50.390;8.640;2023-03-05T00:20:06;2.13;;;1.05;;
54388;SDS011;40975;50.390;8.640;2023-03-05T00:22:33;3.38;;;1.10;;
54388;SDS011;40975;50.390;8.640;2023-03-05T00:24:58;3.75;;;1.35;;
54388;SDS011;40975;50.390;8.640;2023-03-05T00:27:24;3.20;;;1.20;;
54388;SDS011;40975;50.390;8.640;2023-03-05T00:29:49;5.35;;;1.67;;
54388;SDS011;40975;50.390;8.640;2023-03-05T00:32:15;2.67;;;1.10;;
54388;SDS011;40975;50.390;8.640;2023-03-05T00:34:40;3.13;;;1.20;;
54388;SDS011;40975;50.390;8.640;2023-03-05T00:37:05;4.10;;;1.40;;
54388;SDS011;40975;50.390;8.640;2023-03-05T00:39:31;4.30;;;1.50;;
54388;SDS011;40975;50.390;8.640;2023-03-05T00:41:57;3.78;;;1.23;;
54388;SDS011;40975;50.390;8.640;2023-03-05T00:44:22;3.50;;;1.48;;
54388;SDS011;40975;50.390;8.640;2023-03-05T00:46:48;4.43;;;1.42;;
54388;SDS011;40975;50.390;8.640;2023-03-05T00:49:14;3.72;;;1.20;;
54388;SDS011;40975;50.390;8.640;2023-03-05T00:51:40;1.90;;;1.10;;
54388;SDS011;40975;50.390;8.640;2023-03-05T00:54:05;3.10;;;1.23;;
54388;SDS011;40975;50.390;8.640;2023-03-05T00:56:31;2.88;;;1.27;;
54388;SDS011;40975;50.390;8.640;2023-03-05T00:58:56;3.38;;;1.10;;
54388;SDS011;40975;50.390;8.640;2023-03-05T01:01:22;4.25;;;1.40;;
54388;SDS011;40975;50.390;8.640;2023-03-05T01:03:49;2.42;;;1.13;;
54388;SDS011;40975;50.390;8.640;2023-03-05T01:06:14;5.50;;;1.20;;
54388;SDS011;40975;50.390;8.640;2023-03-05T01:08:43;4.82;;;1.35;;
54388;SDS011;40975;50.390;8.640;2023-03-05T01:11:09;3.90;;;1.20;;
54388;SDS011;40975;50.390;8.640;2023-03-05T01:13:35;4.28;;;0.98;;
54388;SDS011;40975;50.390;8.640;2023-03-05T01:16:01;1.85;;;1.00;;
54388;SDS011;40975;50.390;8.640;2023-03-05T01:18:27;4.63;;;1.15;;
54388;SDS011;40975;50.390;8.640;2023-03-05T01:20:53;3.20;;;1.35;;
54388;SDS011;40975;50.390;8.640;2023-03-05T01:23:18;2.20;;;1.10;;
54388;SDS011;40975;50.390;8.640;2023-03-05T01:25:44;4.25;;;1.30;;
54388;SDS011;40975;50.390;8.640;2023-03-05T01:28:09;6.65;;;1.83;;
54388;SDS011;40975;50.390;8.640;2023-03-05T01:30:35;3.35;;;1.27;;
54388;SDS011;40975;50.390;8.640;2023-03-05T01:33:00;2.08;;;0.95;;
54388;SDS011;40975;50.390;8.640;2023-03-05T01:35:26;3.80;;;1.55;;
54388;SDS011;40975;50.390;8.640;2023-03-05T01:37:53;3.67;;;1.42;;
54388;SDS011;40975;50.390;8.640;2023-03-05T01:40:26;4.85;;;1.45;;
54388;SDS011;40975;50.390;8.640;2023-03-05T01:43:00;4.78;;;1.55;;
54388;SDS011;40975;50.390;8.640;2023-03-05T01:45:37;4.90;;;1.98;;
54388;SDS011;40975;50.390;8.640;2023-03-05T01:48:03;7.30;;;1.73;;
54388;SDS011;40975;50.390;8.640;2023-03-05T01:50:29;4.43;;;1.90;;
54388;SDS011;40975;50.390;8.640;2023-03-05T01:52:58;4.57;;;1.50;;
54388;SDS011;40975;50.390;8.640;2023-03-05T01:55:27;4.22;;;1.40;;
54388;SDS011;40975;50.390;8.640;2023-03-05T01:58:10;3.65;;;1.92;;
54388;SDS011;40975;50.390;8.640;2023-03-05T02:00:43;3.50;;;1.25;;
54388;SDS011;40975;50.390;8.640;2023-03-05T02:03:11;3.17;;;1.10;;
54388;SDS011;40975;50.390;8.640;2023-03-05T02:05:38;4.53;;;1.20;;
54388;SDS011;40975;50.390;8.640;2023-03-05T02:08:08;3.50;;;1.08;;
54388;SDS011;40975;50.390;8.640;2023-03-05T02:10:36;2.92;;;1.30;;
54388;SDS011;40975;50.390;8.640;2023-03-05T02:13:04;2.60;;;1.20;;
54388;SDS011;40975;50.390;8.640;2023-03-05T02:15:32;3.53;;;1.40;;
54388;SDS011;40975;50.390;8.640;2023-03-05T02:17:59;5.07;;;1.60;;
54388;SDS011;40975;50.390;8.640;2023-03-05T02:20:26;5.43;;;1.75;;
54388;SDS011;40975;50.390;8.640;2023-03-05T02:22:53;1.55;;;1.25;;
54388;SDS011;40975;50.390;8.640;2023-03-05T02:25:26;6.22;;;1.50;;
54388;SDS011;40975;50.390;8.640;2023-03-05T02:27:58;5.10;;;1.50;;
54388;SDS011;40975;50.390;8.640;2023-03-05T02:30:26;1.77;;;1.30;;
54388;SDS011;40975;50.390;8.640;2023-03-05T02:32:52;3.78;;;1.70;;
54388;SDS011;40975;50.390;8.640;2023-03-05T02:35:19;4.50;;;1.23;;
54388;SDS011;40975;50.390;8.640;2023-03-05T02:37:45;8.05;;;1.83;;
54388;SDS011;40975;50.390;8.640;2023-03-05T02:40:12;6.00;;;1.30;;
54388;SDS011;40975;50.390;8.640;2023-03-05T02:42:40;6.70;;;1.48;;
54388;SDS011;40975;50.390;8.640;2023-03-05T02:45:06;1.73;;;1.20;;
54388;SDS011;40975;50.390;8.640;2023-03-05T02:47:32;5.32;;;1.33;;
54388;SDS011;40975;50.390;8.640;2023-03-05T02:49:57;5.53;;;1.38;;
54388;SDS011;40975;50.390;8.640;2023-03-05T02:52:23;3.35;;;1.45;;
54388;SDS011;40975;50.390;8.640;2023-03-05T02:54:50;3.38;;;1.23;;
54388;SDS011;40975;50.390;8.640;2023-03-05T02:57:16;4.60;;;1.13;;
54388;SDS011;40975;50.390;8.640;2023-03-05T02:59:44;4.85;;;1.42;;
54388;SDS011;40975;50.390;8.640;2023-03-05T03:02:09;7.13;;;1.17;;
54388;SDS011;40975;50.390;8.640;2023-03-05T03:04:34;4.72;;;1.17;;
54388;SDS011;40975;50.390;8.640;2023-03-05T03:07:00;3.60;;;1.42;;
54388;SDS011;40975;50.390;8.640;2023-03-05T03:09:25;7.13;;;1.38;;
54388;SDS011;40975;50.390;8.640;2023-03-05T03:11:51;1.67;;;1.05;;
54388;SDS011;40975;50.390;8.640;2023-03-05T03:14:16;3.88;;;1.20;;
54388;SDS011;40975;50.390;8.640;2023-03-05T03:16:42;3.58;;;1.10;;
54388;SDS011;40975;50.390;8.640;2023-03-05T03:19:07;5.38;;;0.90;;
54388;SDS011;40975;50.390;8.640;2023-03-05T03:21:32;1.60;;;0.93;;
54388;SDS011;40975;50.390;8.640;2023-03-05T03:23:57;4.70;;;1.08;;
54388;SDS011;40975;50.390;8.640;2023-03-05T03:26:23;4.63;;;1.02;;
54388;SDS011;40975;50.390;8.640;2023-03-05T03:28:48;2.63;;;1.50;;
54388;SDS011;40975;50.390;8.640;2023-03-05T03:31:14;1.42;;;1.00;;
54388;SDS011;40975;50.390;8.640;2023-03-05T03:33:39;4.20;;;1.17;;
54388;SDS011;40975;50.390;8.640;2023-03-05T03:36:04;1.90;;;0.82;;
54388;SDS011;40975;50.390;8.640;2023-03-05T03:38:30;3.40;;;1.23;;
54388;SDS011;40975;50.390;8.640;2023-03-05T03:40:56;2.85;;;0.90;;
54388;SDS011;40975;50.390;8.640;2023-03-05T03:43:21;2.88;;;1.02;;
54388;SDS011;40975;50.390;8.640;2023-03-05T03:45:46;3.67;;;0.90;;
54388;SDS011;40975;50.390;8.640;2023-03-05T03:48:12;0.82;;;0.65;;
54388;SDS011;40975;50.390;8.640;2023-03-05T03:50:40;4.18;;;0.70;;
54388;SDS011;40975;50.390;8.640;2023-03-05T03:53:07;3.75;;;0.95;;
54388;SDS011;40975;50.390;8.640;2023-03-05T03:55:33;2.63;;;0.40;;
54388;SDS011;40975;50.390;8.640;2023-03-05T03:57:59;2.55;;;0.70;;
54388;SDS011;40975;50.390;8.640;2023-03-05T04:00:24;4.07;;;0.65;;
54388;SDS011;40975;50.390;8.640;2023-03-05T04:02:49;2.60;;;0.80;;
54388;SDS011;40975;50.390;8.640;2023-03-05T04:05:15;1.30;;;0.60;;
54388;SDS011;40975;50.390;8.640;2023-03-05T04:07:40;1.20;;;0.93;;
54388;SDS011;40975;50.390;8.640;2023-03-05T04:10:06;1.00;;;0.63;;
54388;SDS011;40975;50.390;8.640;2023-03-05T04:12:31;4.82;;;1.08;;
54388;SDS011;40975;50.390;8.640;2023-03-05T04:14:57;2.95;;;0.52;;
54388;SDS011;40975;50.390;8.640;2023-03-05T04:17:22;2.95;;;0.68;;
54388;SDS011;40975;50.390;8.640;2023-03-05T04:19:48;0.60;;;0.40;;
54388;SDS011;40975;50.390;8.640;2023-03-05T04:22:14;4.25;;;0.68;;
54388;SDS011;40975;50.390;8.640;2023-03-05T04:24:41;2.10;;;0.60;;
54388;SDS011;40975;50.390;8.640;2023-03-05T04:27:07;1.75;;;0.40;;
54388;SDS011;40975;50.390;8.640;2023-03-05T04:29:32;1.58;;;0.47;;
54388;SDS011;40975;50.390;8.640;2023-03-05T04:31:58;0.52;;;0.50;;
54388;SDS011;40975;50.390;8.640;2023-03-05T04:34:23;3.78;;;0.50;;
54388;SDS011;40975;50.390;8.640;2023-03-05T04:36:49;3.00;;;0.50;;
54388;SDS011;40975;50.390;8.640;2023-03-05T04:39:14;1.77;;;0.60;;
54388;SDS011;40975;50.390;8.640;2023-03-05T04:41:40;0.45;;;0.43;;
54388;SDS011;40975;50.390;8.640;2023-03-05T04:44:05;0.30;;;0.30;;
54388;SDS011;40975;50.390;8.640;2023-03-05T04:46:31;1.98;;;0.50;;
54388;SDS011;40975;50.390;8.640;2023-03-05T04:48:57;1.05;;;0.50;;
54388;SDS011;40975;50.390;8.640;2023-03-05T04:51:22;0.30;;;0.30;;
54388;SDS011;40975;50.390;8.640;2023-03-05T04:53:48;0.45;;;0.30;;
54388;SDS011;40975;50.390;8.640;2023-03-05T04:56:13;0.35;;;0.28;;
54388;SDS011;40975;50.390;8.640;2023-03-05T04:58:38;1.50;;;0.47;;
54388;SDS011;40975;50.390;8.640;2023-03-05T05:01:04;0.55;;;0.35;;
54388;SDS011;40975;50.390;8.640;2023-03-05T05:03:30;0.43;;;0.43;;
54388;SDS011;40975;50.390;8.640;2023-03-05T05:05:57;1.85;;;0.60;;
54388;SDS011;40975;50.390;8.640;2023-03-05T05:08:23;0.77;;;0.40;;
54388;SDS011;40975;50.390;8.640;2023-03-05T05:10:56;1.95;;;0.60;;
54388;SDS011;40975;50.390;8.640;2023-03-05T05:13:23;1.92;;;0.40;;
54388;SDS011;40975;50.390;8.640;2023-03-05T05:15:48;0.45;;;0.40;;
54388;SDS011;40975;50.390;8.640;2023-03-05T05:18:13;0.32;;;0.30;;
54388;SDS011;40975;50.390;8.640;2023-03-05T05:20:39;0.73;;;0.40;;
54388;SDS011;40975;50.390;8.640;2023-03-05T05:23:04;1.85;;;0.40;;
54388;SDS011;40975;50.390;8.640;2023-03-05T05:25:29;1.45;;;0.40;;
54388;SDS011;40975;50.390;8.640;2023-03-05T05:27:55;0.22;;;0.20;;
54388;SDS011;40975;50.390;8.640;2023-03-05T05:30:20;1.20;;;0.40;;
54388;SDS011;40975;50.390;8.640;2023-03-05T05:32:45;2.15;;;0.60;;
54388;SDS011;40975;50.390;8.640;2023-03-05T05:35:11;2.45;;;0.65;;
54388;SDS011;40975;50.390;8.640;2023-03-05T05:37:36;1.85;;;0.63;;
54388;SDS011;40975;50.390;8.640;2023-03-05T05:40:02;0.20;;;0.20;;
54388;SDS011;40975;50.390;8.640;2023-03-05T05:42:29;1.65;;;0.30;;
54388;SDS011;40975;50.390;8.640;2023-03-05T05:44:55;4.95;;;0.60;;
54388;SDS011;40975;50.390;8.640;2023-03-05T05:47:20;1.17;;;0.43;;
54388;SDS011;40975;50.390;8.640;2023-03-05T05:49:45;2.53;;;0.47;;
54388;SDS011;40975;50.390;8.640;2023-03-05T05:52:11;2.70;;;0.60;;
54388;SDS011;40975;50.390;8.640;2023-03-05T05:54:37;1.85;;;0.60;;
54388;SDS011;40975;50.390;8.640;2023-03-05T05:57:02;0.70;;;0.60;;
54388;SDS011;40975;50.390;8.640;2023-03-05T05:59:28;0.98;;;0.40;;
54388;SDS011;40975;50.390;8.640;2023-03-05T06:01:53;0.82;;;0.45;;
54388;SDS011;40975;50.390;8.640;2023-03-05T06:04:19;1.17;;;0.70;;
54388;SDS011;40975;50.390;8.640;2023-03-05T06:06:44;1.35;;;0.40;;
54388;SDS011;40975;50.390;8.640;2023-03-05T06:09:09;1.13;;;0.50;;
54388;SDS011;40975;50.390;8.640;2023-03-05T06:11:35;1.00;;;0.35;;
54388;SDS011;40975;50.390;8.640;2023-03-05T06:14:01;1.60;;;0.40;;
54388;SDS011;40975;50.390;8.640;2023-03-05T06:16:27;1.30;;;0.60;;
54388;SDS011;40975;50.390;8.640;2023-03-05T06:18:53;1.20;;;0.52;;
54388;SDS011;40975;50.390;8.640;2023-03-05T06:21:19;0.20;;;0.20;;
54388;SDS011;40975;50.390;8.640;2023-03-05T06:23:46;0.93;;;0.50;;
54388;SDS011;40975;50.390;8.640;2023-03-05T06:26:13;0.47;;;0.32;;
54388;SDS011;40975;50.390;8.640;2023-03-05T06:28:41;2.30;;;0.35;;
54388;SDS011;40975;50.390;8.640;2023-03-05T06:31:07;2.53;;;0.40;;
54388;SDS011;40975;50.390;8.640;2023-03-05T06:33:52;1.92;;;0.50;;
54388;SDS011;40975;50.390;8.640;2023-03-05T06:36:20;2.95;;;0.55;;
54388;SDS011;40975;50.390;8.640;2023-03-05T06:38:47;2.08;;;0.70;;
54388;SDS011;40975;50.390;8.640;2023-03-05T06:41:14;0.57;;;0.50;;
54388;SDS011;40975;50.390;8.640;2023-03-05T06:43:43;1.77;;;0.60;;
54388;SDS011;40975;50.390;8.640;2023-03-05T06:46:19;2.05;;;0.90;;
54388;SDS011;40975;50.390;8.640;2023-03-05T06:48:50;1.17;;;0.55;;
54388;SDS011;40975;50.390;8.640;2023-03-05T06:51:18;1.50;;;0.70;;
54388;SDS011;40975;50.390;8.640;2023-03-05T06:53:46;8.93;;;1.25;;
54388;SDS011;40975;50.390;8.640;2023-03-05T06:56:12;3.28;;;1.15;;
54388;SDS011;40975;50.390;8.640;2023-03-05T06:58:40;4.20;;;1.35;;
54388;SDS011;40975;50.390;8.640;2023-03-05T07:01:12;5.53;;;1.60;;
54388;SDS011;40975;50.390;8.640;2023-03-05T07:03:39;6.10;;;1.60;;
54388;SDS011;40975;50.390;8.640;2023-03-05T07:06:06;11.25;;;2.33;;
54388;SDS011;40975;50.390;8.640;2023-03-05T07:08:33;4.28;;;2.75;;
54388;SDS011;40975;50.390;8.640;2023-03-05T07:10:58;5.50;;;2.67;;
54388;SDS011;40975;50.390;8.640;2023-03-05T07:13:24;8.65;;;2.92;;
54388;SDS011;40975;50.390;8.640;2023-03-05T07:15:50;4.70;;;2.45;;
54388;SDS011;40975;50.390;8.640;2023-03-05T07:18:15;6.80;;;2.30;;
54388;SDS011;40975;50.390;8.640;2023-03-05T07:20:40;5.15;;;2.15;;
54388;SDS011;40975;50.390;8.640;2023-03-05T07:23:06;6.60;;;2.78;;
54388;SDS011;40975;50.390;8.640;2023-03-05T07:25:31;8.60;;;2.58;;
54388;SDS011;40975;50.390;8.640;2023-03-05T07:27:59;6.78;;;3.10;;
54388;SDS011;40975;50.390;8.640;2023-03-05T07:30:24;6.88;;;3.00;;
54388;SDS011;40975;50.390;8.640;2023-03-05T07:32:51;8.13;;;3.15;;
54388;SDS011;40975;50.390;8.640;2023-03-05T07:35:16;6.50;;;3.50;;
54388;SDS011;40975;50.390;8.640;2023-03-05T07:37:41;8.57;;;3.17;;
54388;SDS011;40975;50.390;8.640;2023-03-05T07:40:07;7.65;;;3.78;;
54388;SDS011;40975;50.390;8.640;2023-03-05T07:42:33;5.88;;;3.42;;
54388;SDS011;40975;50.390;8.640;2023-03-05T07:45:10;7.38;;;2.88;;
54388;SDS011;40975;50.390;8.640;2023-03-05T07:47:35;6.95;;;3.22;;
54388;SDS011;40975;50.390;8.640;2023-03-05T07:50:01;11.18;;;4.15;;
54388;SDS011;40975;50.390;8.640;2023-03-05T07:52:27;8.40;;;3.47;;
54388;SDS011;40975;50.390;8.640;2023-03-05T07:54:52;8.57;;;3.63;;
54388;SDS011;40975;50.390;8.640;2023-03-05T07:57:18;10.48;;;3.60;;
54388;SDS011;40975;50.390;8.640;2023-03-05T07:59:43;10.13;;;4.55;;
54388;SDS011;40975;50.390;8.640;2023-03-05T08:02:12;8.07;;;3.53;;
54388;SDS011;40975;50.390;8.640;2023-03-05T08:04:38;6.72;;;3.58;;
54388;SDS011;40975;50.390;8.640;2023-03-05T08:07:03;8.52;;;3.67;;
54388;SDS011;40975;50.390;8.640;2023-03-05T08:09:29;5.00;;;3.20;;
54388;SDS011;40975;50.390;8.640;2023-03-05T08:11:54;12.57;;;4.22;;
54388;SDS011;40975;50.390;8.640;2023-03-05T08:14:20;11.65;;;4.53;;
54388;SDS011;40975;50.390;8.640;2023-03-05T08:16:45;9.27;;;3.90;;
54388;SDS011;40975;50.390;8.640;2023-03-05T08:19:11;7.75;;;3.60;;
54388;SDS011;40975;50.390;8.640;2023-03-05T08:21:36;6.38;;;3.53;;
54388;SDS011;40975;50.390;8.640;2023-03-05T08:24:03;7.80;;;3.58;;
54388;SDS011;40975;50.390;8.640;2023-03-05T08:26:31;10.45;;;3.90;;
54388;SDS011;40975;50.390;8.640;2023-03-05T08:28:59;7.65;;;3.60;;
54388;SDS011;40975;50.390;8.640;2023-03-05T08:31:25;8.98;;;3.88;;
54388;SDS011;40975;50.390;8.640;2023-03-05T08:33:52;8.20;;;3.33;;
54388;SDS011;40975;50.390;8.640;2023-03-05T08:36:19;10.05;;;3.55;;
54388;SDS011;40975;50.390;8.640;2023-03-05T08:38:44;7.65;;;3.50;;
54388;SDS011;40975;50.390;8.640;2023-03-05T08:41:12;15.25;;;3.80;;
54388;SDS011;40975;50.390;8.640;2023-03-05T08:43:42;5.15;;;3.05;;
54388;SDS011;40975;50.390;8.640;2023-03-05T08:46:08;5.40;;;3.15;;
54388;SDS011;40975;50.390;8.640;2023-03-05T08:48:34;6.60;;;2.88;;
54388;SDS011;40975;50.390;8.640;2023-03-05T08:51:06;7.18;;;3.05;;
54388;SDS011;40975;50.390;8.640;2023-03-05T08:53:33;8.25;;;3.22;;
54388;SDS011;40975;50.390;8.640;2023-03-05T08:55:59;7.53;;;3.20;;
54388;SDS011;40975;50.390;8.640;2023-03-05T08:58:24;7.47;;;2.92;;
54388;SDS011;40975;50.390;8.640;2023-03-05T09:00:50;7.95;;;3.67;;
54388;SDS011;40975;50.390;8.640;2023-03-05T09:03:16;6.25;;;2.97;;
54388;SDS011;40975;50.390;8.640;2023-03-05T09:05:41;7.45;;;3.70;;
54388;SDS011;40975;50.390;8.640;2023-03-05T09:08:06;7.78;;;3.58;;
54388;SDS011;40975;50.390;8.640;2023-03-05T09:10:32;6.10;;;3.47;;
54388;SDS011;40975;50.390;8.640;2023-03-05T09:12:57;7.93;;;3.92;;
54388;SDS011;40975;50.390;8.640;2023-03-05T09:15:22;9.18;;;3.50;;
54388;SDS011;40975;50.390;8.640;2023-03-05T09:17:48;11.10;;;3.70;;
54388;SDS011;40975;50.390;8.640;2023-03-05T09:20:13;10.95;;;3.75;;
54388;SDS011;40975;50.390;8.640;2023-03-05T09:22:39;7.57;;;2.90;;
54388;SDS011;40975;50.390;8.640;2023-03-05T09:25:05;8.18;;;3.50;;
54388;SDS011;40975;50.390;8.640;2023-03-05T09:27:32;12.52;;;4.68;;
54388;SDS011;40975;50.390;8.640;2023-03-05T09:29:58;8.98;;;3.75;;
54388;SDS011;40975;50.390;8.640;2023-03-05T09:32:24;8.60;;;3.90;;
54388;SDS011;40975;50.390;8.640;2023-03-05T09:34:49;12.30;;;3.85;;
54388;SDS011;40975;50.390;8.640;2023-03-05T09:37:14;6.97;;;3.20;;
54388;SDS011;40975;50.390;8.640;2023-03-05T09:39:40;5.55;;;2.88;;
54388;SDS011;40975;50.390;8.640;2023-03-05T09:45:08;6.38;;;2.90;;
54388;SDS011;40975;50.390;8.640;2023-03-05T09:48:02;4.50;;;2.38;;
54388;SDS011;40975;50.390;8.640;2023-03-05T09:50:39;7.35;;;2.83;;
54388;SDS011;40975;50.390;8.640;2023-03-05T09:53:57;5.22;;;2.42;;
54388;SDS011;40975;50.390;8.640;2023-03-05T09:56:09;5.75;;;2.33;;
54388;SDS011;40975;50.390;8.640;2023-03-05T09:58:39;9.50;;;2.95;;
54388;SDS011;40975;50.390;8.640;2023-03-05T10:01:10;6.07;;;2.60;;
54388;SDS011;40975;50.390;8.640;2023-03-05T10:03:51;7.03;;;2.85;;
54388;SDS011;40975;50.390;8.640;2023-03-05T10:06:45;3.50;;;1.90;;
54388;SDS011;40975;50.390;8.640;2023-03-05T10:11:55;7.30;;;2.22;;
54388;SDS011;40975;50.390;8.640;2023-03-05T10:14:25;4.85;;;2.40;;
54388;SDS011;40975;50.390;8.640;2023-03-05T10:17:04;4.28;;;1.88;;
54388;SDS011;40975;50.390;8.640;2023-03-05T10:22:28;3.05;;;1.67;;
54388;SDS011;40975;50.390;8.640;2023-03-05T10:25:10;3.40;;;1.88;;
54388;SDS011;40975;50.390;8.640;2023-03-05T10:27:51;4.57;;;2.00;;
54388;SDS011;40975;50.390;8.640;2023-03-05T10:33:39;6.30;;;1.80;;
54388;SDS011;40975;50.390;8.640;2023-03-05T10:36:18;3.08;;;1.83;;
54388;SDS011;40975;50.390;8.640;2023-03-05T10:39:04;6.22;;;2.83;;
54388;SDS011;40975;50.390;8.640;2023-03-05T10:41:51;6.50;;;2.35;;
54388;SDS011;40975;50.390;8.640;2023-03-05T10:44:48;5.47;;;2.40;;
54388;SDS011;40975;50.390;8.640;2023-03-05T10:49:54;6.75;;;2.53;;
54388;SDS011;40975;50.390;8.640;2023-03-05T10:52:23;5.53;;;2.15;;
54388;SDS011;40975;50.390;8.640;2023-03-05T10:54:54;6.68;;;2.33;;
54388;SDS011;40975;50.390;8.640;2023-03-05T10:57:21;5.47;;;2.30;;
54388;SDS011;40975;50.390;8.640;2023-03-05T10:59:49;4.70;;;1.67;;
54388;SDS011;40975;50.390;8.640;2023-03-05T11:10:43;3.60;;;1.70;;
54388;SDS011;40975;50.390;8.640;2023-03-05T11:13:25;1.95;;;1.10;;
54388;SDS011;40975;50.390;8.640;2023-03-05T11:15:58;3.38;;;1.75;;
54388;SDS011;40975;50.390;8.640;2023-03-05T11:18:27;4.93;;;1.55;;
54388;SDS011;40975;50.390;8.640;2023-03-05T11:21:11;2.88;;;1.30;;
54388;SDS011;40975;50.390;8.640;2023-03-05T11:23:43;3.05;;;1.20;;
54388;SDS011;40975;50.390;8.640;2023-03-05T11:26:27;4.05;;;2.03;;
54388;SDS011;40975;50.390;8.640;2023-03-05T11:33:53;3.78;;;2.17;;
54388;SDS011;40975;50.390;8.640;2023-03-05T11:38:58;4.63;;;2.42;;
54388;SDS011;40975;50.390;8.640;2023-03-05T11:44:14;5.93;;;2.22;;
54388;SDS011;40975;50.390;8.640;2023-03-05T11:46:46;5.70;;;2.00;;
54388;SDS011;40975;50.390;8.640;2023-03-05T11:49:19;3.95;;;2.30;;
54388;SDS011;40975;50.390;8.640;2023-03-05T11:57:18;2.45;;;1.30;;
54388;SDS011;40975;50.390;8.640;2023-03-05T11:59:46;4.50;;;1.75;;
54388;SDS011;40975;50.390;8.640;2023-03-05T12:02:15;4.03;;;1.27;;
54388;SDS011;40975;50.390;8.640;2023-03-05T12:04:44;4.20;;;1.40;;
54388;SDS011;40975;50.390;8.640;2023-03-05T12:07:09;2.58;;;1.38;;
54388;SDS011;40975;50.390;8.640;2023-03-05T12:09:40;4.32;;;1.90;;
54388;SDS011;40975;50.390;8.640;2023-03-05T12:12:21;4.20;;;1.42;;
54388;SDS011;40975;50.390;8.640;2023-03-05T12:15:24;2.13;;;1.27;;
54388;SDS011;40975;50.390;8.640;2023-03-05T12:20:40;2.75;;;1.60;;
54388;SDS011;40975;50.390;8.640;2023-03-05T12:23:11;2.03;;;1.42;;
54388;SDS011;40975;50.390;8.640;2023-03-05T12:30:57;1.83;;;1.35;;
54388;SDS011;40975;50.390;8.640;2023-03-05T12:33:34;3.00;;;1.20;;
54388;SDS011;40975;50.390;8.640;2023-03-05T12:38:52;3.65;;;1.50;;
54388;SDS011;40975;50.390;8.640;2023-03-05T12:46:33;1.95;;;1.30;;
54388;SDS011;40975;50.390;8.640;2023-03-05T12:49:45;2.65;;;1.63;;
54388;SDS011;40975;50.390;8.640;2023-03-05T12:51:47;5.30;;;1.75;;
54388;SDS011;40975;50.390;8.640;2023-03-05T13:00:02;3.38;;;1.65;;
54388;SDS011;40975;50.390;8.640;2023-03-05T13:02:36;2.42;;;1.33;;
54388;SDS011;40975;50.390;8.640;2023-03-05T13:05:13;2.33;;;1.52;;
54388;SDS011;40975;50.390;8.640;2023-03-05T13:07:43;3.03;;;1.42;;
54388;SDS011;40975;50.390;8.640;2023-03-05T13:10:20;3.50;;;1.40;;
54388;SDS011;40975;50.390;8.640;2023-03-05T13:12:48;2.60;;;1.13;;
54388;SDS011;40975;50.390;8.640;2023-03-05T13:15:17;2.65;;;1.30;;
54388;SDS011;40975;50.390;8.640;2023-03-05T13:17:53;3.55;;;1.23;;
54388;SDS011;40975;50.390;8.640;2023-03-05T13:20:34;3.55;;;1.45;;
54388;SDS011;40975;50.390;8.640;2023-03-05T13:23:19;1.23;;;1.10;;
54388;SDS011;40975;50.390;8.640;2023-03-05T13:28:42;4.03;;;1.42;;
54388;SDS011;40975;50.390;8.640;2023-03-05T13:31:28;1.80;;;1.02;;
54388;SDS011;40975;50.390;8.640;2023-03-05T13:33:58;2.45;;;1.23;;
54388;SDS011;40975;50.390;8.640;2023-03-05T13:36:32;3.80;;;1.17;;
54388;SDS011;40975;50.390;8.640;2023-03-05T13:38:58;2.30;;;1.85;;
54388;SDS011;40975;50.390;8.640;2023-03-05T13:41:28;3.15;;;1.23;;
54388;SDS011;40975;50.390;8.640;2023-03-05T13:43:58;2.30;;;1.45;;
54388;SDS011;40975;50.390;8.640;2023-03-05T13:51:47;2.05;;;1.30;;
54388;SDS011;40975;50.390;8.640;2023-03-05T13:54:14;5.30;;;1.23;;
54388;SDS011;40975;50.390;8.640;2023-03-05T13:56:47;2.15;;;0.82;;
54388;SDS011;40975;50.390;8.640;2023-03-05T13:59:18;1.90;;;1.20;;
54388;SDS011;40975;50.390;8.640;2023-03-05T14:01:46;3.47;;;1.17;;
54388;SDS011;40975;50.390;8.640;2023-03-05T14:06:42;2.22;;;1.55;;
54388;SDS011;40975;50.390;8.640;2023-03-05T14:09:17;2.20;;;1.25;;
54388;SDS011;40975;50.390;8.640;2023-03-05T14:14:43;2.70;;;1.40;;
54388;SDS011;40975;50.390;8.640;2023-03-05T14:17:22;2.83;;;1.15;;
54388;SDS011;40975;50.390;8.640;2023-03-05T14:20:08;2.65;;;1.35;;
54388;SDS011;40975;50.390;8.640;2023-03-05T14:22:35;3.45;;;1.83;;
54388;SDS011;40975;50.390;8.640;2023-03-05T14:25:02;2.65;;;1.40;;
54388;SDS011;40975;50.390;8.640;2023-03-05T14:27:33;2.58;;;1.70;;
54388;SDS011;40975;50.390;8.640;2023-03-05T14:30:00;3.10;;;1.50;;
54388;SDS011;40975;50.390;8.640;2023-03-05T14:32:32;17.63;;;9.27;;
54388;SDS011;40975;50.390;8.640;2023-03-05T14:35:01;9.50;;;5.63;;
54388;SDS011;40975;50.390;8.640;2023-03-05T14:37:35;22.25;;;10.60;;
54388;SDS011;40975;50.390;8.640;2023-03-05T14:40:29;14.80;;;8.30;;
54388;SDS011;40975;50.390;8.640;2023-03-05T14:42:59;24.98;;;15.50;;
54388;SDS011;40975;50.390;8.640;2023-03-05T14:45:30;6.70;;;3.60;;
54388;SDS011;40975;50.390;8.640;2023-03-05T14:48:01;8.27;;;4.55;;
54388;SDS011;40975;50.390;8.640;2023-03-05T14:50:47;4.78;;;3.90;;
54388;SDS011;40975;50.390;8.640;2023-03-05T14:53:19;10.73;;;6.72;;
54388;SDS011;40975;50.390;8.640;2023-03-05T14:55:48;7.35;;;2.10;;
54388;SDS011;40975;50.390;8.640;2023-03-05T14:58:20;3.30;;;1.88;;
54388;SDS011;40975;50.390;8.640;2023-03-05T15:00:50;3.63;;;1.67;;
54388;SDS011;40975;50.390;8.640;2023-03-05T15:03:16;5.55;;;1.80;;
54388;SDS011;40975;50.390;8.640;2023-03-05T15:05:42;3.65;;;1.75;;
54388;SDS011;40975;50.390;8.640;2023-03-05T15:08:12;6.65;;;3.72;;
54388;SDS011;40975;50.390;8.640;2023-03-05T15:10:39;4.53;;;2.45;;
54388;SDS011;40975;50.390;8.640;2023-03-05T15:13:04;6.47;;;2.67;;
54388;SDS011;40975;50.390;8.640;2023-03-05T15:15:30;4.65;;;2.30;;
54388;SDS011;40975;50.390;8.640;2023-03-05T15:17:56;3.88;;;2.10;;
54388;SDS011;40975;50.390;8.640;2023-03-05T15:20:25;6.82;;;2.47;;
54388;SDS011;40975;50.390;8.640;2023-03-05T15:22:53;3.60;;;2.13;;
54388;SDS011;40975;50.390;8.640;2023-03-05T15:25:19;3.80;;;1.98;;
54388;SDS011;40975;50.390;8.640;2023-03-05T15:27:45;5.28;;;2.10;;
54388;SDS011;40975;50.390;8.640;2023-03-05T15:30:16;5.93;;;2.50;;
54388;SDS011;40975;50.390;8.640;2023-03-05T15:32:46;5.65;;;2.28;;
54388;SDS011;40975;50.390;8.640;2023-03-05T15:35:12;5.53;;;2.83;;
54388;SDS011;40975;50.390;8.640;2023-03-05T15:37:37;4.47;;;2.72;;
54388;SDS011;40975;50.390;8.640;2023-03-05T15:40:02;7.50;;;2.85;;
54388;SDS011;40975;50.390;8.640;2023-03-05T15:42:28;6.65;;;2.60;;
54388;SDS011;40975;50.390;8.640;2023-03-05T15:44:54;5.28;;;2.65;;
54388;SDS011;40975;50.390;8.640;2023-03-05T15:47:19;5.18;;;2.80;;
54388;SDS011;40975;50.390;8.640;2023-03-05T15:49:44;8.15;;;3.13;;
54388;SDS011;40975;50.390;8.640;2023-03-05T15:52:10;5.75;;;2.75;;
54388;SDS011;40975;50.390;8.640;2023-03-05T15:54:35;6.57;;;3.00;;
54388;SDS011;40975;50.390;8.640;2023-03-05T15:57:01;5.03;;;3.47;;
54388;SDS011;40975;50.390;8.640;2023-03-05T15:59:27;5.50;;;2.65;;
54388;SDS011;40975;50.390;8.640;2023-03-05T16:01:52;4.15;;;2.80;;
54388;SDS011;40975;50.390;8.640;2023-03-05T16:04:17;6.07;;;3.28;;
54388;SDS011;40975;50.390;8.640;2023-03-05T16:06:46;6.10;;;3.05;;
54388;SDS011;40975;50.390;8.640;2023-03-05T16:09:13;7.70;;;3.53;;